createdAt,value
2022-11-14T00:07:58.114Z,73.33
2022-11-14T00:18:21.061Z,73.55
2022-11-14T00:28:43.281Z,73.78
2022-11-14T00:39:05.812Z,73.75
2022-11-14T00:49:27.988Z,74.18
2022-11-14T00:59:50.148Z,74.46
2022-11-14T01:10:12.431Z,74.56
2022-11-14T01:20:34.531Z,74.89
2022-11-14T01:30:56.750Z,74.92
2022-11-14T01:41:19.338Z,74.82
2022-11-14T01:51:46.292Z,74.67
2022-11-14T02:02:21.676Z,74.75
2022-11-14T02:12:44.939Z,74.47
2022-11-14T02:23:07.140Z,74.50
2022-11-14T02:33:29.088Z,73.89
2022-11-14T02:43:51.244Z,73.59
2022-11-14T02:54:13.489Z,73.05
2022-11-14T03:04:35.601Z,72.72
2022-11-14T03:14:57.660Z,72.67
2022-11-14T03:25:19.679Z,72.66
2022-11-14T03:35:45.008Z,73.01
2022-11-14T03:46:07.141Z,73.09
2022-11-14T03:56:29.092Z,73.39
2022-11-14T04:06:51.105Z,73.43
2022-11-14T04:17:13.196Z,73.37
2022-11-14T04:27:36.026Z,73.11
2022-11-14T04:37:58.101Z,73.29
2022-11-14T04:48:19.854Z,73.05
2022-11-14T04:58:41.836Z,73.17
2022-11-14T05:09:04.208Z,72.83
2022-11-14T05:19:26.487Z,72.81
2022-11-14T05:29:48.659Z,71.72
2022-11-14T05:40:11.263Z,70.71
2022-11-14T05:50:33.477Z,70.61
2022-11-14T06:01:06.542Z,70.12
2022-11-14T06:11:28.528Z,70.22
2022-11-14T06:21:50.441Z,69.83
2022-11-14T06:32:12.620Z,69.75
2022-11-14T06:42:34.547Z,70.75
2022-11-14T06:52:58.580Z,71.50
2022-11-14T07:03:21.323Z,71.46
2022-11-14T07:13:43.171Z,71.18
2022-11-14T07:24:05.621Z,71.16
2022-11-14T07:34:27.668Z,70.93
2022-11-14T07:44:49.526Z,70.45
2022-11-14T07:55:11.566Z,69.57
2022-11-14T08:05:33.518Z,69.34
2022-11-14T08:15:55.425Z,68.06
2022-11-14T08:26:17.614Z,66.91
2022-11-14T08:36:39.553Z,65.57
2022-11-14T08:47:02.462Z,65.15
2022-11-14T08:57:24.481Z,64.96
2022-11-14T09:07:46.778Z,64.70
2022-11-14T09:18:10.104Z,64.68
2022-11-14T09:28:32.440Z,64.07
2022-11-14T09:38:54.585Z,63.50
2022-11-14T10:01:17.896Z,62.91
2022-11-14T10:11:49.574Z,62.60
2022-11-14T10:22:18.677Z,62.31
2022-11-14T10:32:58.506Z,62.43
2022-11-14T10:43:51.464Z,62.79
2022-11-14T10:54:23.418Z,62.52
2022-11-14T11:04:46.399Z,62.35
2022-11-14T11:15:24.938Z,62.22
2022-11-14T11:25:59.990Z,62.12
2022-11-14T11:36:25.168Z,62.23
2022-11-14T11:47:01.291Z,62.32
2022-11-14T11:57:34.058Z,61.60
2022-11-14T12:08:04.673Z,61.18
2022-11-14T12:18:46.834Z,61.08
2022-11-14T12:29:22.649Z,61.02
2022-11-14T12:40:08.799Z,61.06
2022-11-14T12:50:43.562Z,61.16
2022-11-14T13:01:38.160Z,61.43
2022-11-14T13:12:51.627Z,61.82
2022-11-14T13:23:29.927Z,62.36
2022-11-14T13:33:59.445Z,62.55
2022-11-14T13:44:39.803Z,62.39
2022-11-14T13:55:03.019Z,62.69
2022-11-14T14:05:33.017Z,63.05
2022-11-14T14:15:58.059Z,63.67
2022-11-14T14:26:45.142Z,64.06
2022-11-14T14:37:17.157Z,64.05
2022-11-14T14:47:43.562Z,64.41
2022-11-14T14:58:21.136Z,64.82
2022-11-14T15:08:50.549Z,64.83
2022-11-14T15:19:27.418Z,64.72
2022-11-14T15:29:53.744Z,65.38
2022-11-14T15:40:21.108Z,65.36
2022-11-14T15:50:43.329Z,65.46
2022-11-14T16:01:09.951Z,65.88
2022-11-14T16:11:32.069Z,66.16
2022-11-14T16:22:03.293Z,66.40
2022-11-14T16:32:29.419Z,66.59
2022-11-14T16:42:55.624Z,66.81
2022-11-14T16:53:17.609Z,66.95
2022-11-14T17:03:39.756Z,67.72
2022-11-14T17:14:01.938Z,67.74
2022-11-14T17:24:28.571Z,68.11
2022-11-14T17:34:52.984Z,68.43
2022-11-14T17:45:15.167Z,68.44
2022-11-14T17:55:37.403Z,68.80
2022-11-14T18:06:13.386Z,68.80
2022-11-14T18:17:05.337Z,69.11
2022-11-14T18:27:22.640Z,69.05
2022-11-14T18:37:47.020Z,69.13
2022-11-14T18:48:10.565Z,69.38
2022-11-14T18:58:32.696Z,69.18
2022-11-14T19:08:59.947Z,69.37
2022-11-14T19:19:22.074Z,69.36
2022-11-14T19:29:45.147Z,69.59
2022-11-14T19:40:10.199Z,69.68
2022-11-14T19:50:32.384Z,70.11
2022-11-14T20:01:01.523Z,70.23
2022-11-14T20:11:26.720Z,70.52
2022-11-14T20:21:49.334Z,70.85
2022-11-14T20:32:15.615Z,70.85
2022-11-14T20:42:38.429Z,70.92
2022-11-14T20:53:02.247Z,70.64
2022-11-14T21:03:26.319Z,70.76
2022-11-14T21:14:04.431Z,70.65
2022-11-14T21:24:26.447Z,70.71
2022-11-14T21:34:49.867Z,70.60
2022-11-14T21:45:11.869Z,70.73
2022-11-14T21:55:34.273Z,70.57
2022-11-14T22:05:57.661Z,70.73
2022-11-14T22:16:19.941Z,70.64
2022-11-14T22:26:42.264Z,70.71
2022-11-14T22:37:04.631Z,70.75
2022-11-14T22:47:28.111Z,70.64
2022-11-14T22:57:51.312Z,70.59
2022-11-14T23:08:20.903Z,70.27
2022-11-14T23:18:43.252Z,70.41
2022-11-14T23:29:05.597Z,70.42
2022-11-14T23:39:27.783Z,70.39
2022-11-14T23:49:49.655Z,70.50
